sensor_id;sensor_type;location;lat;lon;timestamp;P1;durP1;ratioP1;P2;durP2;ratioP2
10230;SDS011;62604;49.432;8.680;2023-02-28T00:01:22;4.20;;;3.90;;
10230;SDS011;62604;49.432;8.680;2023-02-28T00:03:50;4.33;;;4.13;;
10230;SDS011;62604;49.432;8.680;2023-02-28T00:06:17;2.53;;;2.40;;
10230;SDS011;62604;49.432;8.680;2023-02-28T00:08:46;4.37;;;4.03;;
10230;SDS011;62604;49.432;8.680;2023-02-28T00:11:14;5.03;;;4.53;;
10230;SDS011;62604;49.432;8.680;2023-02-28T00:13:41;4.73;;;4.43;;
10230;SDS011;62604;49.432;8.680;2023-02-28T00:16:12;5.03;;;3.97;;
10230;SDS011;62604;49.432;8.680;2023-02-28T00:18:40;4.60;;;4.30;;
10230;SDS011;62604;49.432;8.680;2023-02-28T00:21:07;3.83;;;3.53;;
10230;SDS011;62604;49.432;8.680;2023-02-28T00:23:34;4.23;;;4.00;;
10230;SDS011;62604;49.432;8.680;2023-02-28T00:26:03;4.40;;;4.20;;
10230;SDS011;62604;49.432;8.680;2023-02-28T00:28:30;4.47;;;4.10;;
10230;SDS011;62604;49.432;8.680;2023-02-28T00:30:57;3.60;;;3.30;;
10230;SDS011;62604;49.432;8.680;2023-02-28T00:33:25;3.20;;;3.00;;
10230;SDS011;62604;49.432;8.680;2023-02-28T00:35:52;3.63;;;3.33;;
10230;SDS011;62604;49.432;8.680;2023-02-28T00:38:26;2.97;;;2.77;;
10230;SDS011;62604;49.432;8.680;2023-02-28T00:40:53;2.43;;;2.23;;
10230;SDS011;62604;49.432;8.680;2023-02-28T00:43:21;4.00;;;3.80;;
10230;SDS011;62604;49.432;8.680;2023-02-28T00:45:48;3.90;;;3.70;;
10230;SDS011;62604;49.432;8.680;2023-02-28T00:48:15;3.33;;;3.13;;
10230;SDS011;62604;49.432;8.680;2023-02-28T00:50:42;3.67;;;3.37;;
10230;SDS011;62604;49.432;8.680;2023-02-28T00:53:09;2.97;;;2.77;;
10230;SDS011;62604;49.432;8.680;2023-02-28T00:55:36;3.27;;;2.97;;
10230;SDS011;62604;49.432;8.680;2023-02-28T00:58:03;3.93;;;3.63;;
10230;SDS011;62604;49.432;8.680;2023-02-28T01:00:31;3.53;;;3.30;;
10230;SDS011;62604;49.432;8.680;2023-02-28T01:02:58;4.10;;;3.50;;
10230;SDS011;62604;49.432;8.680;2023-02-28T01:05:25;4.30;;;4.10;;
10230;SDS011;62604;49.432;8.680;2023-02-28T01:07:52;4.23;;;3.40;;
10230;SDS011;62604;49.432;8.680;2023-02-28T01:10:19;6.37;;;4.40;;
10230;SDS011;62604;49.432;8.680;2023-02-28T01:12:46;4.13;;;3.83;;
10230;SDS011;62604;49.432;8.680;2023-02-28T01:15:13;3.33;;;3.13;;
10230;SDS011;62604;49.432;8.680;2023-02-28T01:17:41;4.47;;;4.17;;
10230;SDS011;62604;49.432;8.680;2023-02-28T01:20:09;4.10;;;3.80;;
10230;SDS011;62604;49.432;8.680;2023-02-28T01:22:36;5.23;;;2.67;;
10230;SDS011;62604;49.432;8.680;2023-02-28T01:25:04;3.50;;;2.37;;
10230;SDS011;62604;49.432;8.680;2023-02-28T01:27:31;2.63;;;2.43;;
10230;SDS011;62604;49.432;8.680;2023-02-28T01:29:59;2.77;;;2.50;;
10230;SDS011;62604;49.432;8.680;2023-02-28T01:32:26;3.40;;;2.63;;
10230;SDS011;62604;49.432;8.680;2023-02-28T01:34:54;4.33;;;2.50;;
10230;SDS011;62604;49.432;8.680;2023-02-28T01:37:21;3.60;;;2.83;;
10230;SDS011;62604;49.432;8.680;2023-02-28T01:39:48;3.00;;;2.60;;
10230;SDS011;62604;49.432;8.680;2023-02-28T01:42:15;3.07;;;2.87;;
10230;SDS011;62604;49.432;8.680;2023-02-28T01:44:55;2.60;;;2.40;;
10230;SDS011;62604;49.432;8.680;2023-02-28T01:47:27;4.70;;;4.40;;
10230;SDS011;62604;49.432;8.680;2023-02-28T01:49:57;4.40;;;4.10;;
10230;SDS011;62604;49.432;8.680;2023-02-28T01:52:26;4.67;;;4.37;;
10230;SDS011;62604;49.432;8.680;2023-02-28T01:54:55;4.00;;;3.70;;
10230;SDS011;62604;49.432;8.680;2023-02-28T01:57:25;4.00;;;3.70;;
10230;SDS011;62604;49.432;8.680;2023-02-28T02:00:03;3.00;;;2.70;;
10230;SDS011;62604;49.432;8.680;2023-02-28T02:02:34;3.50;;;3.20;;
10230;SDS011;62604;49.432;8.680;2023-02-28T02:05:05;2.70;;;2.50;;
10230;SDS011;62604;49.432;8.680;2023-02-28T02:07:35;2.50;;;2.30;;
10230;SDS011;62604;49.432;8.680;2023-02-28T02:10:04;4.33;;;2.60;;
10230;SDS011;62604;49.432;8.680;2023-02-28T02:12:41;8.47;;;2.90;;
10230;SDS011;62604;49.432;8.680;2023-02-28T02:15:30;3.43;;;2.83;;
10230;SDS011;62604;49.432;8.680;2023-02-28T02:18:01;3.23;;;2.93;;
10230;SDS011;62604;49.432;8.680;2023-02-28T02:23:47;3.40;;;2.93;;
10230;SDS011;62604;49.432;8.680;2023-02-28T02:35:23;2.90;;;2.63;;
10230;SDS011;62604;49.432;8.680;2023-02-28T02:37:56;3.30;;;3.00;;
10230;SDS011;62604;49.432;8.680;2023-02-28T02:40:32;3.33;;;2.67;;
10230;SDS011;62604;49.432;8.680;2023-02-28T02:43:04;3.70;;;3.00;;
10230;SDS011;62604;49.432;8.680;2023-02-28T02:45:38;4.80;;;2.87;;
10230;SDS011;62604;49.432;8.680;2023-02-28T02:48:11;3.63;;;3.20;;
10230;SDS011;62604;49.432;8.680;2023-02-28T02:50:43;3.07;;;2.80;;
10230;SDS011;62604;49.432;8.680;2023-02-28T02:53:12;4.33;;;2.87;;
10230;SDS011;62604;49.432;8.680;2023-02-28T02:55:43;4.77;;;4.37;;
10230;SDS011;62604;49.432;8.680;2023-02-28T02:58:18;4.83;;;4.53;;
10230;SDS011;62604;49.432;8.680;2023-02-28T03:00:50;4.97;;;4.67;;
10230;SDS011;62604;49.432;8.680;2023-02-28T03:03:19;5.20;;;4.80;;
10230;SDS011;62604;49.432;8.680;2023-02-28T03:05:55;5.00;;;4.60;;
10230;SDS011;62604;49.432;8.680;2023-02-28T03:08:24;4.90;;;4.50;;
10230;SDS011;62604;49.432;8.680;2023-02-28T03:10:54;6.53;;;4.80;;
10230;SDS011;62604;49.432;8.680;2023-02-28T03:13:28;4.73;;;4.43;;
10230;SDS011;62604;49.432;8.680;2023-02-28T03:16:28;2.73;;;2.53;;
10230;SDS011;62604;49.432;8.680;2023-02-28T03:22:01;3.43;;;2.43;;
10230;SDS011;62604;49.432;8.680;2023-02-28T03:24:40;2.97;;;2.70;;
10230;SDS011;62604;49.432;8.680;2023-02-28T03:27:14;3.20;;;2.90;;
10230;SDS011;62604;49.432;8.680;2023-02-28T03:29:46;4.97;;;4.40;;
10230;SDS011;62604;49.432;8.680;2023-02-28T03:32:19;5.17;;;4.77;;
10230;SDS011;62604;49.432;8.680;2023-02-28T03:34:54;6.47;;;4.43;;
10230;SDS011;62604;49.432;8.680;2023-02-28T03:37:30;5.20;;;4.70;;
10230;SDS011;62604;49.432;8.680;2023-02-28T03:40:06;5.43;;;4.00;;
10230;SDS011;62604;49.432;8.680;2023-02-28T03:42:38;4.77;;;4.33;;
10230;SDS011;62604;49.432;8.680;2023-02-28T03:45:09;4.83;;;4.50;;
10230;SDS011;62604;49.432;8.680;2023-02-28T03:47:44;5.20;;;4.80;;
10230;SDS011;62604;49.432;8.680;2023-02-28T03:50:18;5.50;;;5.00;;
10230;SDS011;62604;49.432;8.680;2023-02-28T03:52:51;5.47;;;5.07;;
10230;SDS011;62604;49.432;8.680;2023-02-28T03:55:26;4.97;;;4.57;;
10230;SDS011;62604;49.432;8.680;2023-02-28T03:57:57;5.80;;;5.00;;
10230;SDS011;62604;49.432;8.680;2023-02-28T04:00:28;5.37;;;4.97;;
10230;SDS011;62604;49.432;8.680;2023-02-28T04:03:00;4.90;;;4.50;;
10230;SDS011;62604;49.432;8.680;2023-02-28T04:08:51;5.30;;;4.90;;
10230;SDS011;62604;49.432;8.680;2023-02-28T04:11:20;5.47;;;5.03;;
10230;SDS011;62604;49.432;8.680;2023-02-28T04:13:49;5.53;;;5.03;;
10230;SDS011;62604;49.432;8.680;2023-02-28T04:16:17;5.70;;;4.93;;
10230;SDS011;62604;49.432;8.680;2023-02-28T04:18:44;5.07;;;4.67;;
10230;SDS011;62604;49.432;8.680;2023-02-28T04:21:11;5.00;;;4.70;;
10230;SDS011;62604;49.432;8.680;2023-02-28T04:23:38;5.70;;;5.20;;
10230;SDS011;62604;49.432;8.680;2023-02-28T04:26:06;5.73;;;5.10;;
10230;SDS011;62604;49.432;8.680;2023-02-28T04:28:33;5.60;;;5.10;;
10230;SDS011;62604;49.432;8.680;2023-02-28T04:31:01;5.27;;;4.87;;
10230;SDS011;62604;49.432;8.680;2023-02-28T04:33:29;4.83;;;4.33;;
10230;SDS011;62604;49.432;8.680;2023-02-28T04:35:58;5.37;;;4.87;;
10230;SDS011;62604;49.432;8.680;2023-02-28T04:38:26;3.83;;;3.53;;
10230;SDS011;62604;49.432;8.680;2023-02-28T04:40:53;6.33;;;4.60;;
10230;SDS011;62604;49.432;8.680;2023-02-28T04:43:21;4.40;;;4.00;;
10230;SDS011;62604;49.432;8.680;2023-02-28T04:45:48;4.83;;;4.30;;
10230;SDS011;62604;49.432;8.680;2023-02-28T04:48:15;4.83;;;4.43;;
10230;SDS011;62604;49.432;8.680;2023-02-28T04:50:42;5.73;;;4.30;;
10230;SDS011;62604;49.432;8.680;2023-02-28T04:53:08;4.20;;;3.90;;
10230;SDS011;62604;49.432;8.680;2023-02-28T04:55:35;4.83;;;4.43;;
10230;SDS011;62604;49.432;8.680;2023-02-28T04:58:05;4.60;;;4.20;;
10230;SDS011;62604;49.432;8.680;2023-02-28T05:00:33;7.00;;;4.40;;
10230;SDS011;62604;49.432;8.680;2023-02-28T05:03:00;4.40;;;4.10;;
10230;SDS011;62604;49.432;8.680;2023-02-28T05:05:27;4.77;;;4.37;;
10230;SDS011;62604;49.432;8.680;2023-02-28T05:07:54;5.23;;;4.10;;
10230;SDS011;62604;49.432;8.680;2023-02-28T05:10:21;5.47;;;4.97;;
10230;SDS011;62604;49.432;8.680;2023-02-28T05:12:48;4.80;;;4.40;;
10230;SDS011;62604;49.432;8.680;2023-02-28T05:15:16;5.53;;;5.03;;
10230;SDS011;62604;49.432;8.680;2023-02-28T05:17:44;6.20;;;4.33;;
10230;SDS011;62604;49.432;8.680;2023-02-28T05:20:12;5.73;;;5.13;;
10230;SDS011;62604;49.432;8.680;2023-02-28T05:22:39;5.97;;;5.13;;
10230;SDS011;62604;49.432;8.680;2023-02-28T05:25:08;5.43;;;5.13;;
10230;SDS011;62604;49.432;8.680;2023-02-28T05:27:37;5.57;;;5.10;;
10230;SDS011;62604;49.432;8.680;2023-02-28T05:30:04;5.87;;;5.10;;
10230;SDS011;62604;49.432;8.680;2023-02-28T05:32:35;6.10;;;5.50;;
10230;SDS011;62604;49.432;8.680;2023-02-28T05:35:04;5.37;;;5.07;;
10230;SDS011;62604;49.432;8.680;2023-02-28T05:37:31;5.40;;;5.10;;
10230;SDS011;62604;49.432;8.680;2023-02-28T05:39:58;12.43;;;6.10;;
10230;SDS011;62604;49.432;8.680;2023-02-28T05:42:25;5.90;;;5.50;;
10230;SDS011;62604;49.432;8.680;2023-02-28T05:44:52;6.10;;;5.60;;
10230;SDS011;62604;49.432;8.680;2023-02-28T05:47:19;5.70;;;5.30;;
10230;SDS011;62604;49.432;8.680;2023-02-28T05:49:46;6.00;;;5.53;;
10230;SDS011;62604;49.432;8.680;2023-02-28T05:52:14;5.57;;;5.20;;
10230;SDS011;62604;49.432;8.680;2023-02-28T05:54:41;5.67;;;5.27;;
10230;SDS011;62604;49.432;8.680;2023-02-28T05:57:08;6.00;;;5.50;;
10230;SDS011;62604;49.432;8.680;2023-02-28T05:59:35;5.47;;;5.10;;
10230;SDS011;62604;49.432;8.680;2023-02-28T06:02:04;5.90;;;5.40;;
10230;SDS011;62604;49.432;8.680;2023-02-28T06:04:33;5.70;;;5.30;;
10230;SDS011;62604;49.432;8.680;2023-02-28T06:07:00;8.20;;;6.43;;
10230;SDS011;62604;49.432;8.680;2023-02-28T06:09:29;8.93;;;6.33;;
10230;SDS011;62604;49.432;8.680;2023-02-28T06:11:57;5.70;;;5.30;;
10230;SDS011;62604;49.432;8.680;2023-02-28T06:14:24;6.07;;;5.57;;
10230;SDS011;62604;49.432;8.680;2023-02-28T06:16:51;6.20;;;5.60;;
10230;SDS011;62604;49.432;8.680;2023-02-28T06:19:18;6.60;;;6.00;;
10230;SDS011;62604;49.432;8.680;2023-02-28T06:21:48;7.47;;;4.10;;
10230;SDS011;62604;49.432;8.680;2023-02-28T06:24:15;7.47;;;4.80;;
10230;SDS011;62604;49.432;8.680;2023-02-28T06:26:44;3.97;;;3.57;;
10230;SDS011;62604;49.432;8.680;2023-02-28T06:29:11;5.80;;;5.33;;
10230;SDS011;62604;49.432;8.680;2023-02-28T06:31:38;5.60;;;5.10;;
10230;SDS011;62604;49.432;8.680;2023-02-28T06:34:05;6.30;;;5.77;;
10230;SDS011;62604;49.432;8.680;2023-02-28T06:36:32;5.73;;;5.33;;
10230;SDS011;62604;49.432;8.680;2023-02-28T06:38:59;6.13;;;5.53;;
10230;SDS011;62604;49.432;8.680;2023-02-28T06:41:26;6.27;;;5.77;;
10230;SDS011;62604;49.432;8.680;2023-02-28T06:43:54;6.00;;;5.50;;
10230;SDS011;62604;49.432;8.680;2023-02-28T06:46:21;5.87;;;5.37;;
10230;SDS011;62604;49.432;8.680;2023-02-28T06:48:49;6.00;;;5.60;;
10230;SDS011;62604;49.432;8.680;2023-02-28T06:51:16;6.47;;;5.87;;
10230;SDS011;62604;49.432;8.680;2023-02-28T06:53:45;6.67;;;6.07;;
10230;SDS011;62604;49.432;8.680;2023-02-28T06:56:13;4.63;;;3.90;;
10230;SDS011;62604;49.432;8.680;2023-02-28T06:58:42;5.17;;;3.90;;
10230;SDS011;62604;49.432;8.680;2023-02-28T07:01:14;6.43;;;5.93;;
10230;SDS011;62604;49.432;8.680;2023-02-28T07:03:42;6.80;;;6.20;;
10230;SDS011;62604;49.432;8.680;2023-02-28T07:06:09;6.60;;;6.10;;
10230;SDS011;62604;49.432;8.680;2023-02-28T07:08:36;4.53;;;3.87;;
10230;SDS011;62604;49.432;8.680;2023-02-28T07:11:05;6.83;;;6.23;;
10230;SDS011;62604;49.432;8.680;2023-02-28T07:13:32;6.07;;;5.63;;
10230;SDS011;62604;49.432;8.680;2023-02-28T07:15:59;6.33;;;5.77;;
10230;SDS011;62604;49.432;8.680;2023-02-28T07:18:29;6.93;;;6.43;;
10230;SDS011;62604;49.432;8.680;2023-02-28T07:20:57;4.17;;;3.80;;
10230;SDS011;62604;49.432;8.680;2023-02-28T07:23:24;4.60;;;3.97;;
10230;SDS011;62604;49.432;8.680;2023-02-28T07:25:51;6.63;;;6.20;;
10230;SDS011;62604;49.432;8.680;2023-02-28T07:28:18;6.73;;;6.23;;
10230;SDS011;62604;49.432;8.680;2023-02-28T07:30:45;6.67;;;6.00;;
10230;SDS011;62604;49.432;8.680;2023-02-28T07:33:13;7.13;;;6.43;;
10230;SDS011;62604;49.432;8.680;2023-02-28T07:35:41;7.73;;;4.27;;
10230;SDS011;62604;49.432;8.680;2023-02-28T07:38:08;6.97;;;6.37;;
10230;SDS011;62604;49.432;8.680;2023-02-28T07:40:36;5.13;;;3.80;;
10230;SDS011;62604;49.432;8.680;2023-02-28T07:43:03;4.87;;;4.40;;
10230;SDS011;62604;49.432;8.680;2023-02-28T07:45:30;5.93;;;5.47;;
10230;SDS011;62604;49.432;8.680;2023-02-28T07:47:57;6.73;;;6.23;;
10230;SDS011;62604;49.432;8.680;2023-02-28T07:50:24;6.73;;;6.23;;
10230;SDS011;62604;49.432;8.680;2023-02-28T07:52:55;6.53;;;5.93;;
10230;SDS011;62604;49.432;8.680;2023-02-28T07:55:22;6.70;;;6.20;;
10230;SDS011;62604;49.432;8.680;2023-02-28T07:57:49;6.43;;;6.00;;
10230;SDS011;62604;49.432;8.680;2023-02-28T08:00:16;7.10;;;6.53;;
10230;SDS011;62604;49.432;8.680;2023-02-28T08:02:43;6.60;;;6.10;;
10230;SDS011;62604;49.432;8.680;2023-02-28T08:05:10;6.83;;;6.27;;
10230;SDS011;62604;49.432;8.680;2023-02-28T08:07:37;7.47;;;6.83;;
10230;SDS011;62604;49.432;8.680;2023-02-28T08:10:06;7.23;;;6.50;;
10230;SDS011;62604;49.432;8.680;2023-02-28T08:12:35;7.70;;;7.00;;
10230;SDS011;62604;49.432;8.680;2023-02-28T08:15:02;6.67;;;6.17;;
10230;SDS011;62604;49.432;8.680;2023-02-28T08:17:29;7.73;;;6.93;;
10230;SDS011;62604;49.432;8.680;2023-02-28T08:19:56;7.10;;;6.47;;
10230;SDS011;62604;49.432;8.680;2023-02-28T08:22:23;7.33;;;6.83;;
10230;SDS011;62604;49.432;8.680;2023-02-28T08:24:50;7.00;;;6.50;;
10230;SDS011;62604;49.432;8.680;2023-02-28T08:27:18;7.03;;;6.43;;
10230;SDS011;62604;49.432;8.680;2023-02-28T08:29:45;7.80;;;7.07;;
10230;SDS011;62604;49.432;8.680;2023-02-28T08:32:12;7.43;;;6.83;;
10230;SDS011;62604;49.432;8.680;2023-02-28T08:34:39;7.45;;;6.93;;
10230;SDS011;62604;49.432;8.680;2023-02-28T08:37:06;6.55;;;6.15;;
10230;SDS011;62604;49.432;8.680;2023-02-28T08:39:33;7.35;;;6.85;;
10230;SDS011;62604;49.432;8.680;2023-02-28T08:42:01;7.65;;;7.05;;
10230;SDS011;62604;49.432;8.680;2023-02-28T08:44:29;7.13;;;6.63;;
10230;SDS011;62604;49.432;8.680;2023-02-28T08:46:56;7.30;;;6.70;;
10230;SDS011;62604;49.432;8.680;2023-02-28T08:49:23;7.07;;;6.57;;
10230;SDS011;62604;49.432;8.680;2023-02-28T08:51:50;7.25;;;6.65;;
10230;SDS011;62604;49.432;8.680;2023-02-28T08:54:17;7.50;;;7.00;;
10230;SDS011;62604;49.432;8.680;2023-02-28T08:56:44;7.38;;;6.75;;
10230;SDS011;62604;49.432;8.680;2023-02-28T08:59:12;7.22;;;6.72;;
10230;SDS011;62604;49.432;8.680;2023-02-28T09:01:40;7.45;;;6.90;;
10230;SDS011;62604;49.432;8.680;2023-02-28T09:04:08;7.80;;;7.15;;
10230;SDS011;62604;49.432;8.680;2023-02-28T09:06:36;7.53;;;7.00;;
10230;SDS011;62604;49.432;8.680;2023-02-28T09:09:04;7.40;;;6.70;;
10230;SDS011;62604;49.432;8.680;2023-02-28T09:11:32;7.28;;;6.78;;
10230;SDS011;62604;49.432;8.680;2023-02-28T09:13:59;7.72;;;7.07;;
10230;SDS011;62604;49.432;8.680;2023-02-28T09:16:28;7.22;;;6.53;;
10230;SDS011;62604;49.432;8.680;2023-02-28T09:18:57;7.40;;;6.90;;
10230;SDS011;62604;49.432;8.680;2023-02-28T09:21:24;7.63;;;7.05;;
10230;SDS011;62604;49.432;8.680;2023-02-28T09:23:51;7.68;;;7.07;;
10230;SDS011;62604;49.432;8.680;2023-02-28T09:26:19;7.45;;;6.85;;
10230;SDS011;62604;49.432;8.680;2023-02-28T09:28:48;7.28;;;6.57;;
10230;SDS011;62604;49.432;8.680;2023-02-28T09:31:17;7.85;;;7.28;;
10230;SDS011;62604;49.432;8.680;2023-02-28T09:33:46;7.85;;;7.07;;
10230;SDS011;62604;49.432;8.680;2023-02-28T09:36:16;6.93;;;6.43;;
10230;SDS011;62604;49.432;8.680;2023-02-28T09:38:43;7.28;;;6.63;;
10230;SDS011;62604;49.432;8.680;2023-02-28T09:41:12;7.30;;;6.80;;
10230;SDS011;62604;49.432;8.680;2023-02-28T09:43:42;13.32;;;7.07;;
10230;SDS011;62604;49.432;8.680;2023-02-28T09:46:13;7.28;;;6.68;;
10230;SDS011;62604;49.432;8.680;2023-02-28T09:48:47;7.80;;;7.10;;
10230;SDS011;62604;49.432;8.680;2023-02-28T09:51:23;7.30;;;6.70;;
10230;SDS011;62604;49.432;8.680;2023-02-28T09:53:56;7.72;;;7.13;;
10230;SDS011;62604;49.432;8.680;2023-02-28T09:56:24;7.22;;;6.72;;
10230;SDS011;62604;49.432;8.680;2023-02-28T09:58:55;7.88;;;7.18;;
10230;SDS011;62604;49.432;8.680;2023-02-28T10:01:27;7.53;;;7.03;;
10230;SDS011;62604;49.432;8.680;2023-02-28T10:04:03;7.40;;;6.80;;
10230;SDS011;62604;49.432;8.680;2023-02-28T10:06:38;7.82;;;6.88;;
10230;SDS011;62604;49.432;8.680;2023-02-28T10:09:11;7.45;;;6.88;;
10230;SDS011;62604;49.432;8.680;2023-02-28T10:11:41;7.30;;;6.80;;
10230;SDS011;62604;49.432;8.680;2023-02-28T10:14:12;7.43;;;6.82;;
10230;SDS011;62604;49.432;8.680;2023-02-28T10:16:42;7.65;;;7.10;;
10230;SDS011;62604;49.432;8.680;2023-02-28T10:19:17;7.72;;;7.05;;
10230;SDS011;62604;49.432;8.680;2023-02-28T10:21:53;7.68;;;6.95;;
10230;SDS011;62604;49.432;8.680;2023-02-28T10:24:25;7.93;;;7.23;;
10230;SDS011;62604;49.432;8.680;2023-02-28T10:26:58;7.83;;;7.23;;
10230;SDS011;62604;49.432;8.680;2023-02-28T10:29:27;7.30;;;6.80;;
10230;SDS011;62604;49.432;8.680;2023-02-28T10:31:58;7.80;;;7.10;;
10230;SDS011;62604;49.432;8.680;2023-02-28T10:34:27;7.80;;;7.13;;
10230;SDS011;62604;49.432;8.680;2023-02-28T10:36:56;7.70;;;7.00;;
10230;SDS011;62604;49.432;8.680;2023-02-28T10:39:39;7.27;;;6.60;;
10230;SDS011;62604;49.432;8.680;2023-02-28T10:42:18;7.50;;;6.90;;
10230;SDS011;62604;49.432;8.680;2023-02-28T10:44:47;8.00;;;7.30;;
10230;SDS011;62604;49.432;8.680;2023-02-28T10:47:14;9.17;;;6.70;;
10230;SDS011;62604;49.432;8.680;2023-02-28T10:49:46;7.53;;;6.87;;
10230;SDS011;62604;49.432;8.680;2023-02-28T10:52:16;7.90;;;7.30;;
10230;SDS011;62604;49.432;8.680;2023-02-28T10:55:14;7.53;;;6.90;;
10230;SDS011;62604;49.432;8.680;2023-02-28T10:57:46;6.80;;;6.30;;
10230;SDS011;62604;49.432;8.680;2023-02-28T11:00:15;7.40;;;6.80;;
10230;SDS011;62604;49.432;8.680;2023-02-28T11:02:44;7.73;;;7.10;;
10230;SDS011;62604;49.432;8.680;2023-02-28T11:05:24;7.40;;;6.70;;
10230;SDS011;62604;49.432;8.680;2023-02-28T11:07:54;8.00;;;7.30;;
10230;SDS011;62604;49.432;8.680;2023-02-28T11:10:24;8.10;;;6.47;;
10230;SDS011;62604;49.432;8.680;2023-02-28T11:12:55;9.83;;;7.23;;
10230;SDS011;62604;49.432;8.680;2023-02-28T11:15:23;7.47;;;6.40;;
10230;SDS011;62604;49.432;8.680;2023-02-28T11:17:53;7.70;;;7.03;;
10230;SDS011;62604;49.432;8.680;2023-02-28T11:20:23;6.90;;;6.30;;
10230;SDS011;62604;49.432;8.680;2023-02-28T11:22:53;7.67;;;7.03;;
10230;SDS011;62604;49.432;8.680;2023-02-28T11:25:23;7.70;;;7.00;;
10230;SDS011;62604;49.432;8.680;2023-02-28T11:27:52;9.80;;;8.27;;
10230;SDS011;62604;49.432;8.680;2023-02-28T11:30:27;8.70;;;7.40;;
10230;SDS011;62604;49.432;8.680;2023-02-28T11:32:57;8.33;;;7.53;;
10230;SDS011;62604;49.432;8.680;2023-02-28T11:35:26;7.87;;;7.07;;
10230;SDS011;62604;49.432;8.680;2023-02-28T11:37:58;8.20;;;7.60;;
10230;SDS011;62604;49.432;8.680;2023-02-28T11:40:28;7.40;;;6.88;;
10230;SDS011;62604;49.432;8.680;2023-02-28T11:43:06;7.63;;;6.93;;
10230;SDS011;62604;49.432;8.680;2023-02-28T11:45:51;7.60;;;6.97;;
10230;SDS011;62604;49.432;8.680;2023-02-28T11:48:32;7.50;;;6.83;;
10230;SDS011;62604;49.432;8.680;2023-02-28T11:51:08;7.27;;;6.67;;
10230;SDS011;62604;49.432;8.680;2023-02-28T11:53:51;8.73;;;7.60;;
10230;SDS011;62604;49.432;8.680;2023-02-28T11:56:38;7.53;;;6.93;;
10230;SDS011;62604;49.432;8.680;2023-02-28T11:59:24;7.83;;;7.03;;
10230;SDS011;62604;49.432;8.680;2023-02-28T12:02:20;10.67;;;7.37;;
10230;SDS011;62604;49.432;8.680;2023-02-28T12:04:58;7.30;;;6.78;;
10230;SDS011;62604;49.432;8.680;2023-02-28T12:07:38;7.47;;;6.82;;
10230;SDS011;62604;49.432;8.680;2023-02-28T12:10:20;7.63;;;6.93;;
10230;SDS011;62604;49.432;8.680;2023-02-28T12:12:52;7.63;;;6.95;;
10230;SDS011;62604;49.432;8.680;2023-02-28T12:18:23;7.22;;;6.63;;
10230;SDS011;62604;49.432;8.680;2023-02-28T12:21:01;7.78;;;7.07;;
10230;SDS011;62604;49.432;8.680;2023-02-28T12:23:45;7.68;;;7.07;;
10230;SDS011;62604;49.432;8.680;2023-02-28T12:26:25;6.85;;;6.15;;
10230;SDS011;62604;49.432;8.680;2023-02-28T12:29:01;7.38;;;6.78;;
10230;SDS011;62604;49.432;8.680;2023-02-28T12:31:35;6.90;;;6.40;;
10230;SDS011;62604;49.432;8.680;2023-02-28T12:34:06;7.72;;;7.13;;
10230;SDS011;62604;49.432;8.680;2023-02-28T12:36:37;7.72;;;7.03;;
10230;SDS011;62604;49.432;8.680;2023-02-28T12:39:07;7.90;;;7.20;;
10230;SDS011;62604;49.432;8.680;2023-02-28T12:41:41;8.73;;;7.32;;
10230;SDS011;62604;49.432;8.680;2023-02-28T12:44:12;9.57;;;7.93;;
10230;SDS011;62604;49.432;8.680;2023-02-28T12:46:46;7.13;;;6.53;;
10230;SDS011;62604;49.432;8.680;2023-02-28T12:49:16;8.03;;;7.33;;
10230;SDS011;62604;49.432;8.680;2023-02-28T12:51:47;8.50;;;7.73;;
10230;SDS011;62604;49.432;8.680;2023-02-28T12:54:18;8.07;;;7.38;;
10230;SDS011;62604;49.432;8.680;2023-02-28T12:56:54;7.82;;;7.07;;
10230;SDS011;62604;49.432;8.680;2023-02-28T12:59:32;7.55;;;6.85;;
10230;SDS011;62604;49.432;8.680;2023-02-28T13:05:12;7.93;;;7.32;;
10230;SDS011;62604;49.432;8.680;2023-02-28T13:10:44;8.02;;;7.30;;
10230;SDS011;62604;49.432;8.680;2023-02-28T13:13:15;7.80;;;7.10;;
10230;SDS011;62604;49.432;8.680;2023-02-28T13:16:00;8.10;;;7.30;;
10230;SDS011;62604;49.432;8.680;2023-02-28T13:18:30;7.80;;;7.20;;
10230;SDS011;62604;49.432;8.680;2023-02-28T13:21:01;7.97;;;7.38;;
10230;SDS011;62604;49.432;8.680;2023-02-28T13:23:56;8.15;;;7.40;;
10230;SDS011;62604;49.432;8.680;2023-02-28T13:29:31;8.27;;;7.47;;
10230;SDS011;62604;49.432;8.680;2023-02-28T13:38:12;7.83;;;7.23;;
10230;SDS011;62604;49.432;8.680;2023-02-28T13:40:43;8.63;;;7.00;;
10230;SDS011;62604;49.432;8.680;2023-02-28T13:43:10;7.87;;;7.27;;
10230;SDS011;62604;49.432;8.680;2023-02-28T13:45:38;8.63;;;7.73;;
10230;SDS011;62604;49.432;8.680;2023-02-28T13:48:26;8.53;;;7.50;;
10230;SDS011;62604;49.432;8.680;2023-02-28T13:50:55;8.17;;;7.50;;
10230;SDS011;62604;49.432;8.680;2023-02-28T13:53:32;8.97;;;8.17;;
10230;SDS011;62604;49.432;8.680;2023-02-28T13:59:15;8.57;;;7.43;;
10230;SDS011;62604;49.432;8.680;2023-02-28T14:02:00;8.30;;;7.50;;
10230;SDS011;62604;49.432;8.680;2023-02-28T14:04:47;10.73;;;7.80;;
10230;SDS011;62604;49.432;8.680;2023-02-28T14:07:21;7.77;;;7.07;;
10230;SDS011;62604;49.432;8.680;2023-02-28T14:09:54;8.07;;;6.93;;
10230;SDS011;62604;49.432;8.680;2023-02-28T14:15:44;8.67;;;7.87;;
10230;SDS011;62604;49.432;8.680;2023-02-28T14:18:23;9.07;;;7.83;;
10230;SDS011;62604;49.432;8.680;2023-02-28T14:20:54;7.77;;;7.03;;
10230;SDS011;62604;49.432;8.680;2023-02-28T14:23:40;7.83;;;7.03;;
10230;SDS011;62604;49.432;8.680;2023-02-28T14:26:25;7.93;;;7.27;;
10230;SDS011;62604;49.432;8.680;2023-02-28T14:29:04;7.90;;;7.10;;
10230;SDS011;62604;49.432;8.680;2023-02-28T14:31:47;8.57;;;7.53;;
10230;SDS011;62604;49.432;8.680;2023-02-28T14:34:26;8.10;;;7.30;;
10230;SDS011;62604;49.432;8.680;2023-02-28T14:37:03;7.90;;;7.20;;
10230;SDS011;62604;49.432;8.680;2023-02-28T14:39:33;7.80;;;7.10;;
10230;SDS011;62604;49.432;8.680;2023-02-28T14:42:01;7.97;;;7.17;;
10230;SDS011;62604;49.432;8.680;2023-02-28T14:44:30;7.93;;;7.20;;
10230;SDS011;62604;49.432;8.680;2023-02-28T14:46:57;8.63;;;6.87;;
10230;SDS011;62604;49.432;8.680;2023-02-28T14:49:31;7.80;;;7.20;;
10230;SDS011;62604;49.432;8.680;2023-02-28T14:52:02;7.80;;;6.93;;
10230;SDS011;62604;49.432;8.680;2023-02-28T14:54:34;8.27;;;7.47;;
10230;SDS011;62604;49.432;8.680;2023-02-28T14:57:02;7.70;;;7.00;;
10230;SDS011;62604;49.432;8.680;2023-02-28T14:59:30;7.90;;;7.07;;
10230;SDS011;62604;49.432;8.680;2023-02-28T15:04:53;8.03;;;7.17;;
10230;SDS011;62604;49.432;8.680;2023-02-28T15:07:21;8.57;;;7.73;;
10230;SDS011;62604;49.432;8.680;2023-02-28T15:10:06;7.90;;;7.20;;
10230;SDS011;62604;49.432;8.680;2023-02-28T15:12:35;7.90;;;7.20;;
10230;SDS011;62604;49.432;8.680;2023-02-28T15:15:03;8.23;;;7.00;;
10230;SDS011;62604;49.432;8.680;2023-02-28T15:17:32;7.47;;;6.73;;
10230;SDS011;62604;49.432;8.680;2023-02-28T15:20:02;7.43;;;6.70;;
10230;SDS011;62604;49.432;8.680;2023-02-28T15:22:31;7.17;;;6.47;;
10230;SDS011;62604;49.432;8.680;2023-02-28T15:25:02;8.37;;;7.43;;
10230;SDS011;62604;49.432;8.680;2023-02-28T15:27:33;8.10;;;7.30;;
10230;SDS011;62604;49.432;8.680;2023-02-28T15:30:08;8.30;;;7.43;;
10230;SDS011;62604;49.432;8.680;2023-02-28T15:32:42;7.83;;;7.10;;
10230;SDS011;62604;49.432;8.680;2023-02-28T15:35:25;7.63;;;6.90;;
10230;SDS011;62604;49.432;8.680;2023-02-28T15:37:58;7.63;;;6.93;;
10230;SDS011;62604;49.432;8.680;2023-02-28T15:40:29;8.00;;;7.20;;
10230;SDS011;62604;49.432;8.680;2023-02-28T15:42:57;7.17;;;6.47;;
10230;SDS011;62604;49.432;8.680;2023-02-28T15:45:41;9.67;;;7.07;;
10230;SDS011;62604;49.432;8.680;2023-02-28T15:48:21;7.57;;;6.77;;
10230;SDS011;62604;49.432;8.680;2023-02-28T15:50:51;9.50;;;7.07;;
10230;SDS011;62604;49.432;8.680;2023-02-28T15:53:22;7.33;;;6.63;;
10230;SDS011;62604;49.432;8.680;2023-02-28T15:55:55;10.80;;;7.43;;